sensor_id;sensor_type;location;lat;lon;timestamp;pressure;altitude;pressure_sealevel;temperature;humidity
48614;BME280;34408;51.426;5.444;2022-09-02T00:01:22;101559.41;;;22.21;36.97
48614;BME280;34408;51.426;5.444;2022-09-02T00:03:54;101560.50;;;22.20;36.95
48614;BME280;34408;51.426;5.444;2022-09-02T00:06:23;101550.94;;;22.17;36.99
48614;BME280;34408;51.426;5.444;2022-09-02T00:08:51;101553.13;;;22.15;37.11
48614;BME280;34408;51.426;5.444;2022-09-02T00:11:22;101550.13;;;22.12;36.98
48614;BME280;34408;51.426;5.444;2022-09-02T00:13:53;101546.59;;;22.11;37.01
48614;BME280;34408;51.426;5.444;2022-09-02T00:16:21;101546.03;;;22.09;37.03
48614;BME280;34408;51.426;5.444;2022-09-02T00:18:51;101544.41;;;22.08;37.20
48614;BME280;34408;51.426;5.444;2022-09-02T00:21:20;101542.25;;;22.05;36.93
48614;BME280;34408;51.426;5.444;2022-09-02T00:23:48;101547.72;;;22.05;37.26
48614;BME280;34408;51.426;5.444;2022-09-02T00:26:16;101543.63;;;22.02;37.25
48614;BME280;34408;51.426;5.444;2022-09-02T00:28:44;101537.31;;;22.02;37.17
48614;BME280;34408;51.426;5.444;2022-09-02T00:31:23;101537.56;;;22.00;37.13
48614;BME280;34408;51.426;5.444;2022-09-02T00:33:51;101527.50;;;21.91;37.43
48614;BME280;34408;51.426;5.444;2022-09-02T00:36:20;101547.44;;;21.96;37.21
48614;BME280;34408;51.426;5.444;2022-09-02T00:38:48;101534.31;;;21.93;37.14
48614;BME280;34408;51.426;5.444;2022-09-02T00:41:19;101535.41;;;21.92;37.11
48614;BME280;34408;51.426;5.444;2022-09-02T00:43:48;101537.63;;;21.90;37.33
48614;BME280;34408;51.426;5.444;2022-09-02T00:46:19;101540.34;;;21.90;37.17
48614;BME280;34408;51.426;5.444;2022-09-02T00:48:54;101537.38;;;21.87;37.34
48614;BME280;34408;51.426;5.444;2022-09-02T00:51:22;101542.03;;;21.86;37.47
48614;BME280;34408;51.426;5.444;2022-09-02T00:53:51;101534.91;;;21.85;37.23
48614;BME280;34408;51.426;5.444;2022-09-02T00:56:21;101537.09;;;21.83;37.27
48614;BME280;34408;51.426;5.444;2022-09-02T00:58:51;101538.19;;;21.82;37.25
48614;BME280;34408;51.426;5.444;2022-09-02T01:01:19;101534.94;;;21.80;37.38
48614;BME280;34408;51.426;5.444;2022-09-02T01:03:50;101527.81;;;21.79;37.42
48614;BME280;34408;51.426;5.444;2022-09-02T01:06:20;101530.84;;;21.77;37.40
48614;BME280;34408;51.426;5.444;2022-09-02T01:08:55;101525.66;;;21.76;37.50
48614;BME280;34408;51.426;5.444;2022-09-02T01:11:27;101524.81;;;21.75;37.47
48614;BME280;34408;51.426;5.444;2022-09-02T01:13:58;101523.47;;;21.73;37.33
48614;BME280;34408;51.426;5.444;2022-09-02T01:16:31;101517.19;;;21.72;37.56
48614;BME280;34408;51.426;5.444;2022-09-02T01:19:05;101519.38;;;21.70;37.42
48614;BME280;34408;51.426;5.444;2022-09-02T01:21:37;101527.03;;;21.68;37.52
48614;BME280;34408;51.426;5.444;2022-09-02T01:24:06;101525.41;;;21.67;37.51
48614;BME280;34408;51.426;5.444;2022-09-02T01:26:34;101524.03;;;21.65;37.53
48614;BME280;34408;51.426;5.444;2022-09-02T01:29:02;101517.75;;;21.64;37.55
48614;BME280;34408;51.426;5.444;2022-09-02T01:31:30;101517.22;;;21.62;37.60
48614;BME280;34408;51.426;5.444;2022-09-02T01:33:57;101527.34;;;21.62;37.67
48614;BME280;34408;51.426;5.444;2022-09-02T01:36:25;101523.78;;;21.61;37.57
48614;BME280;34408;51.426;5.444;2022-09-02T01:38:53;101511.47;;;21.59;37.69
48614;BME280;34408;51.426;5.444;2022-09-02T01:41:22;101515.59;;;21.56;37.72
48614;BME280;34408;51.426;5.444;2022-09-02T01:43:50;101513.97;;;21.55;37.65
48614;BME280;34408;51.426;5.444;2022-09-02T01:46:18;101511.50;;;21.54;37.68
48614;BME280;34408;51.426;5.444;2022-09-02T01:48:45;101510.69;;;21.53;37.61
48614;BME280;34408;51.426;5.444;2022-09-02T01:51:15;101503.84;;;21.51;37.63
48614;BME280;34408;51.426;5.444;2022-09-02T01:53:44;101506.59;;;21.51;37.79
48614;BME280;34408;51.426;5.444;2022-09-02T01:56:12;101506.06;;;21.49;37.72
48614;BME280;34408;51.426;5.444;2022-09-02T01:58:41;101506.31;;;21.47;37.76
48614;BME280;34408;51.426;5.444;2022-09-02T02:01:09;101512.06;;;21.46;37.75
48614;BME280;34408;51.426;5.444;2022-09-02T02:03:37;101504.97;;;21.44;37.76
48614;BME280;34408;51.426;5.444;2022-09-02T02:06:08;101510.72;;;21.43;37.79
48614;BME280;34408;51.426;5.444;2022-09-02T02:08:37;101508.25;;;21.41;37.77
48614;BME280;34408;51.426;5.444;2022-09-02T02:11:05;101509.34;;;21.40;37.99
48614;BME280;34408;51.426;5.444;2022-09-02T02:13:34;101508.53;;;21.40;37.77
48614;BME280;34408;51.426;5.444;2022-09-02T02:16:03;101504.44;;;21.37;37.87
48614;BME280;34408;51.426;5.444;2022-09-02T02:18:31;101503.34;;;21.33;37.96
48614;BME280;34408;51.426;5.444;2022-09-02T02:20:59;101513.19;;;21.34;38.04
48614;BME280;34408;51.426;5.444;2022-09-02T02:23:26;101506.91;;;21.34;37.98
48614;BME280;34408;51.426;5.444;2022-09-02T02:25:54;101506.66;;;21.30;38.10
48614;BME280;34408;51.426;5.444;2022-09-02T02:28:22;101497.91;;;21.28;37.93
48614;BME280;34408;51.426;5.444;2022-09-02T02:30:50;101502.84;;;21.26;38.00
48614;BME280;34408;51.426;5.444;2022-09-02T02:33:19;101502.84;;;21.26;38.10
48614;BME280;34408;51.426;5.444;2022-09-02T02:35:51;101496.81;;;21.24;38.14
48614;BME280;34408;51.426;5.444;2022-09-02T02:38:21;101506.94;;;21.24;38.12
48614;BME280;34408;51.426;5.444;2022-09-02T02:40:53;101491.88;;;21.21;38.17
48614;BME280;34408;51.426;5.444;2022-09-02T02:43:21;101489.41;;;21.20;38.19
48614;BME280;34408;51.426;5.444;2022-09-02T02:45:49;101493.25;;;21.19;38.10
48614;BME280;34408;51.426;5.444;2022-09-02T02:48:18;101498.19;;;21.17;38.04
48614;BME280;34408;51.426;5.444;2022-09-02T02:50:46;101486.69;;;21.15;38.27
48614;BME280;34408;51.426;5.444;2022-09-02T02:53:14;101494.09;;;21.14;38.23
48614;BME280;34408;51.426;5.444;2022-09-02T02:55:43;101490.81;;;21.12;38.21
48614;BME280;34408;51.426;5.444;2022-09-02T02:58:15;101486.44;;;21.11;38.14
48614;BME280;34408;51.426;5.444;2022-09-02T03:00:43;101484.78;;;21.10;38.19
48614;BME280;34408;51.426;5.444;2022-09-02T03:03:12;101485.34;;;21.07;38.20
48614;BME280;34408;51.426;5.444;2022-09-02T03:05:41;101488.09;;;21.07;38.31
48614;BME280;34408;51.426;5.444;2022-09-02T03:08:09;101483.97;;;21.04;38.36
48614;BME280;34408;51.426;5.444;2022-09-02T03:10:38;101485.06;;;21.03;38.25
48614;BME280;34408;51.426;5.444;2022-09-02T03:13:08;101475.25;;;21.02;38.38
48614;BME280;34408;51.426;5.444;2022-09-02T03:15:37;101479.06;;;21.01;38.32
48614;BME280;34408;51.426;5.444;2022-09-02T03:18:05;101477.72;;;20.99;38.39
48614;BME280;34408;51.426;5.444;2022-09-02T03:20:34;101485.91;;;20.99;38.32
48614;BME280;34408;51.426;5.444;2022-09-02T03:23:03;101484.25;;;20.98;38.33
48614;BME280;34408;51.426;5.444;2022-09-02T03:25:32;101483.72;;;20.96;38.42
48614;BME280;34408;51.426;5.444;2022-09-02T03:28:02;101478.00;;;20.92;38.38
48614;BME280;34408;51.426;5.444;2022-09-02T03:30:31;101476.91;;;20.93;38.49
48614;BME280;34408;51.426;5.444;2022-09-02T03:33:00;101470.63;;;20.93;38.44
48614;BME280;34408;51.426;5.444;2022-09-02T03:35:30;101473.63;;;20.91;38.53
48614;BME280;34408;51.426;5.444;2022-09-02T03:37:59;101476.63;;;20.90;38.55
48614;BME280;34408;51.426;5.444;2022-09-02T03:40:28;101470.34;;;20.89;38.52
48614;BME280;34408;51.426;5.444;2022-09-02T03:42:56;101467.06;;;20.87;38.58
48614;BME280;34408;51.426;5.444;2022-09-02T03:45:26;101462.97;;;20.85;38.63
48614;BME280;34408;51.426;5.444;2022-09-02T03:47:55;101467.63;;;20.84;38.67
48614;BME280;34408;51.426;5.444;2022-09-02T03:50:26;101455.91;;;20.78;38.73
48614;BME280;34408;51.426;5.444;2022-09-02T03:52:55;101457.25;;;20.81;38.63
48614;BME280;34408;51.426;5.444;2022-09-02T03:55:24;101457.25;;;20.81;38.77
48614;BME280;34408;51.426;5.444;2022-09-02T03:57:54;101458.38;;;20.80;38.73
48614;BME280;34408;51.426;5.444;2022-09-02T04:00:23;101462.19;;;20.79;38.69
48614;BME280;34408;51.426;5.444;2022-09-02T04:02:54;101455.38;;;20.76;38.63
48614;BME280;34408;51.426;5.444;2022-09-02T04:05:23;101450.44;;;20.73;38.87
48614;BME280;34408;51.426;5.444;2022-09-02T04:07:51;101455.91;;;20.73;38.83
48614;BME280;34408;51.426;5.444;2022-09-02T04:10:19;101452.38;;;20.73;38.79
48614;BME280;34408;51.426;5.444;2022-09-02T04:12:47;101458.09;;;20.71;38.79
48614;BME280;34408;51.426;5.444;2022-09-02T04:15:17;101447.44;;;20.70;38.77
48614;BME280;34408;51.426;5.444;2022-09-02T04:17:45;101452.91;;;20.70;38.88
48614;BME280;34408;51.426;5.444;2022-09-02T04:20:13;101449.91;;;20.66;38.99
48614;BME280;34408;51.426;5.444;2022-09-02T04:22:43;101440.34;;;20.64;38.99
48614;BME280;34408;51.426;5.444;2022-09-02T04:25:11;101449.38;;;20.64;38.94
48614;BME280;34408;51.426;5.444;2022-09-02T04:27:39;101451.28;;;20.64;39.05
48614;BME280;34408;51.426;5.444;2022-09-02T04:30:08;101448.00;;;20.62;39.19
48614;BME280;34408;51.426;5.444;2022-09-02T04:32:37;101436.53;;;20.60;39.07
48614;BME280;34408;51.426;5.444;2022-09-02T04:35:06;101433.81;;;20.60;39.14
48614;BME280;34408;51.426;5.444;2022-09-02T04:37:34;101445.81;;;20.59;39.08
48614;BME280;34408;51.426;5.444;2022-09-02T04:40:02;101438.72;;;20.58;39.16
48614;BME280;34408;51.426;5.444;2022-09-02T04:42:30;101439.00;;;20.56;39.21
48614;BME280;34408;51.426;5.444;2022-09-02T04:44:58;101439.28;;;20.55;39.24
48614;BME280;34408;51.426;5.444;2022-09-02T04:47:25;101440.34;;;20.54;39.29
48614;BME280;34408;51.426;5.444;2022-09-02T04:49:54;101441.44;;;20.53;39.21
48614;BME280;34408;51.426;5.444;2022-09-02T04:52:24;101437.91;;;20.52;39.24
48614;BME280;34408;51.426;5.444;2022-09-02T04:54:51;101444.72;;;20.50;39.46
48614;BME280;34408;51.426;5.444;2022-09-02T04:57:19;101444.47;;;20.51;39.26
48614;BME280;34408;51.426;5.444;2022-09-02T04:59:47;101448.56;;;20.49;39.47
48614;BME280;34408;51.426;5.444;2022-09-02T05:02:15;101445.00;;;20.48;39.47
48614;BME280;34408;51.426;5.444;2022-09-02T05:04:43;101441.44;;;20.48;39.41
48614;BME280;34408;51.426;5.444;2022-09-02T05:07:12;101439.53;;;20.43;39.50
48614;BME280;34408;51.426;5.444;2022-09-02T05:09:41;101444.72;;;20.44;39.38
48614;BME280;34408;51.426;5.444;2022-09-02T05:12:09;101443.91;;;20.44;39.58
48614;BME280;34408;51.426;5.444;2022-09-02T05:14:37;101449.66;;;20.42;39.41
48614;BME280;34408;51.426;5.444;2022-09-02T05:17:05;101450.47;;;20.43;39.73
48614;BME280;34408;51.426;5.444;2022-09-02T05:19:33;101441.44;;;20.42;39.59
48614;BME280;34408;51.426;5.444;2022-09-02T05:22:01;101445.28;;;20.41;39.59
48614;BME280;34408;51.426;5.444;2022-09-02T05:24:31;101449.91;;;20.41;39.59
48614;BME280;34408;51.426;5.444;2022-09-02T05:26:59;101442.81;;;20.40;39.64
48614;BME280;34408;51.426;5.444;2022-09-02T05:29:27;101449.09;;;20.40;39.67
48614;BME280;34408;51.426;5.444;2022-09-02T05:31:55;101446.63;;;20.39;39.68
48614;BME280;34408;51.426;5.444;2022-09-02T05:34:22;101446.63;;;20.39;39.75
48614;BME280;34408;51.426;5.444;2022-09-02T05:36:50;101443.34;;;20.37;39.89
48614;BME280;34408;51.426;5.444;2022-09-02T05:39:19;101447.69;;;20.38;39.75
48614;BME280;34408;51.426;5.444;2022-09-02T05:41:48;101448.25;;;20.35;39.91
48614;BME280;34408;51.426;5.444;2022-09-02T05:44:16;101442.78;;;20.35;39.82
48614;BME280;34408;51.426;5.444;2022-09-02T05:46:44;101445.25;;;20.36;39.83
48614;BME280;34408;51.426;5.444;2022-09-02T05:49:14;101448.25;;;20.35;40.00
48614;BME280;34408;51.426;5.444;2022-09-02T05:51:45;101449.34;;;20.34;39.95
48614;BME280;34408;51.426;5.444;2022-09-02T05:54:15;101451.25;;;20.33;39.85
48614;BME280;34408;51.426;5.444;2022-09-02T05:56:46;101450.69;;;20.31;39.89
48614;BME280;34408;51.426;5.444;2022-09-02T05:59:15;101450.69;;;20.31;40.14
48614;BME280;34408;51.426;5.444;2022-09-02T06:01:44;101443.88;;;20.29;40.16
48614;BME280;34408;51.426;5.444;2022-09-02T06:04:12;101443.88;;;20.29;40.21
48614;BME280;34408;51.426;5.444;2022-09-02T06:06:41;101445.50;;;20.30;40.20
48614;BME280;34408;51.426;5.444;2022-09-02T06:09:11;101441.16;;;20.29;40.16
48614;BME280;34408;51.426;5.444;2022-09-02T06:11:41;101450.16;;;20.29;40.17
48614;BME280;34408;51.426;5.444;2022-09-02T06:14:10;101451.25;;;20.28;40.10
48614;BME280;34408;51.426;5.444;2022-09-02T06:16:41;101447.97;;;20.26;40.10
48614;BME280;34408;51.426;5.444;2022-09-02T06:19:09;101446.88;;;20.27;40.28
48614;BME280;34408;51.426;5.444;2022-09-02T06:21:42;101440.31;;;20.23;40.36
48614;BME280;34408;51.426;5.444;2022-09-02T06:24:10;101442.50;;;20.26;40.18
48614;BME280;34408;51.426;5.444;2022-09-02T06:26:40;101439.22;;;20.24;40.43
48614;BME280;34408;51.426;5.444;2022-09-02T06:29:09;101435.94;;;20.22;40.40
48614;BME280;34408;51.426;5.444;2022-09-02T06:31:41;101445.50;;;20.25;40.29
48614;BME280;34408;51.426;5.444;2022-09-02T06:34:10;101438.13;;;20.25;40.47
48614;BME280;34408;51.426;5.444;2022-09-02T06:36:40;101428.84;;;20.16;40.32
48614;BME280;34408;51.426;5.444;2022-09-02T06:39:10;101442.78;;;20.25;40.55
48614;BME280;34408;51.426;5.444;2022-09-02T06:41:39;101428.03;;;20.15;40.45
48614;BME280;34408;51.426;5.444;2022-09-02T06:44:09;101441.97;;;20.24;40.67
48614;BME280;34408;51.426;5.444;2022-09-02T06:46:44;101444.69;;;20.24;40.64
48614;BME280;34408;51.426;5.444;2022-09-02T06:49:14;101441.13;;;20.24;40.67
48614;BME280;34408;51.426;5.444;2022-09-02T06:51:44;101440.06;;;20.25;40.64
48614;BME280;34408;51.426;5.444;2022-09-02T06:54:14;101434.03;;;20.23;40.70
48614;BME280;34408;51.426;5.444;2022-09-02T06:56:42;101443.06;;;20.23;40.77
48614;BME280;34408;51.426;5.444;2022-09-02T06:59:15;101437.59;;;20.23;40.67
48614;BME280;34408;51.426;5.444;2022-09-02T07:01:45;101429.41;;;20.23;40.83
48614;BME280;34408;51.426;5.444;2022-09-02T07:04:13;101432.94;;;20.24;40.71
48614;BME280;34408;51.426;5.444;2022-09-02T07:06:58;101430.50;;;20.22;40.83
48614;BME280;34408;51.426;5.444;2022-09-02T07:09:26;101434.88;;;20.23;40.90
48614;BME280;34408;51.426;5.444;2022-09-02T07:11:58;101435.41;;;20.25;40.93
48614;BME280;34408;51.426;5.444;2022-09-02T07:14:31;101431.88;;;20.25;40.96
48614;BME280;34408;51.426;5.444;2022-09-02T07:17:04;101424.50;;;20.25;41.01
48614;BME280;34408;51.426;5.444;2022-09-02T07:19:32;101422.59;;;20.26;40.88
48614;BME280;34408;51.426;5.444;2022-09-02T07:22:01;101417.66;;;20.23;41.18
48614;BME280;34408;51.426;5.444;2022-09-02T07:24:29;101423.66;;;20.25;40.89
48614;BME280;34408;51.426;5.444;2022-09-02T07:26:57;101423.66;;;20.25;41.11
48614;BME280;34408;51.426;5.444;2022-09-02T07:29:24;101424.22;;;20.27;41.14
48614;BME280;34408;51.426;5.444;2022-09-02T07:31:52;101414.38;;;20.26;41.11
48614;BME280;34408;51.426;5.444;2022-09-02T07:34:21;101421.50;;;20.27;41.28
48614;BME280;34408;51.426;5.444;2022-09-02T07:36:49;101425.03;;;20.27;41.02
48614;BME280;34408;51.426;5.444;2022-09-02T07:39:18;101413.56;;;20.25;41.39
48614;BME280;34408;51.426;5.444;2022-09-02T07:41:48;101419.56;;;20.27;41.39
48614;BME280;34408;51.426;5.444;2022-09-02T07:44:17;101423.13;;;20.28;41.28
48614;BME280;34408;51.426;5.444;2022-09-02T07:46:45;101421.22;;;20.28;41.37
48614;BME280;34408;51.426;5.444;2022-09-02T07:49:14;101424.75;;;20.29;41.68
48614;BME280;34408;51.426;5.444;2022-09-02T07:51:50;101415.75;;;20.28;41.34
48614;BME280;34408;51.426;5.444;2022-09-02T07:54:20;101423.94;;;20.28;41.31
48614;BME280;34408;51.426;5.444;2022-09-02T07:56:48;101423.13;;;20.28;41.59
48614;BME280;34408;51.426;5.444;2022-09-02T07:59:17;101416.56;;;20.29;41.52
48614;BME280;34408;51.426;5.444;2022-09-02T08:01:47;101419.31;;;20.29;41.48
48614;BME280;34408;51.426;5.444;2022-09-02T08:04:15;101419.31;;;20.29;41.46
48614;BME280;34408;51.426;5.444;2022-09-02T08:06:44;101420.13;;;20.29;41.67
48614;BME280;34408;51.426;5.444;2022-09-02T08:09:13;101411.94;;;20.29;41.52
48614;BME280;34408;51.426;5.444;2022-09-02T08:11:43;101409.19;;;20.29;41.62
48614;BME280;34408;51.426;5.444;2022-09-02T08:14:16;101410.03;;;20.30;41.65
48614;BME280;34408;51.426;5.444;2022-09-02T08:16:45;101415.47;;;20.30;41.87
48614;BME280;34408;51.426;5.444;2022-09-02T08:19:14;101415.22;;;20.31;41.75
48614;BME280;34408;51.426;5.444;2022-09-02T08:21:41;101409.75;;;20.31;41.69
48614;BME280;34408;51.426;5.444;2022-09-02T08:24:09;101414.41;;;20.31;41.84
48614;BME280;34408;51.426;5.444;2022-09-02T08:26:38;101409.75;;;20.31;41.86
48614;BME280;34408;51.426;5.444;2022-09-02T08:29:07;101406.75;;;20.33;41.85
48614;BME280;34408;51.426;5.444;2022-09-02T08:31:36;101406.75;;;20.33;41.80
48614;BME280;34408;51.426;5.444;2022-09-02T08:34:04;101408.38;;;20.34;41.72
48614;BME280;34408;51.426;5.444;2022-09-02T08:36:32;101398.28;;;20.34;41.90
48614;BME280;34408;51.426;5.444;2022-09-02T08:39:02;101404.56;;;20.35;41.99
48614;BME280;34408;51.426;5.444;2022-09-02T08:41:33;101400.75;;;20.36;41.84
48614;BME280;34408;51.426;5.444;2022-09-02T08:44:09;101410.56;;;20.37;42.01
48614;BME280;34408;51.426;5.444;2022-09-02T08:46:40;101400.47;;;20.37;41.96
48614;BME280;34408;51.426;5.444;2022-09-02T08:49:12;101400.22;;;20.39;41.93
48614;BME280;34408;51.426;5.444;2022-09-02T08:51:45;101398.03;;;20.41;41.86
48614;BME280;34408;51.426;5.444;2022-09-02T08:54:21;101398.03;;;20.41;41.96
48614;BME280;34408;51.426;5.444;2022-09-02T08:56:52;101393.41;;;20.41;41.86
48614;BME280;34408;51.426;5.444;2022-09-02T08:59:24;101400.22;;;20.44;42.20
48614;BME280;34408;51.426;5.444;2022-09-02T09:01:57;101400.22;;;20.44;41.98
48614;BME280;34408;51.426;5.444;2022-09-02T09:04:50;101398.03;;;20.46;42.24
48614;BME280;34408;51.426;5.444;2022-09-02T09:07:27;101403.22;;;20.48;42.08
48614;BME280;34408;51.426;5.444;2022-09-02T09:10:05;101400.50;;;20.48;42.18
48614;BME280;34408;51.426;5.444;2022-09-02T09:12:47;101398.31;;;20.50;42.18
48614;BME280;34408;51.426;5.444;2022-09-02T09:15:24;101392.84;;;20.50;42.35
48614;BME280;34408;51.426;5.444;2022-09-02T09:17:58;101400.75;;;20.51;42.22
48614;BME280;34408;51.426;5.444;2022-09-02T09:20:29;101403.22;;;20.53;42.53
48614;BME280;34408;51.426;5.444;2022-09-02T09:23:00;101399.41;;;20.54;42.47
48614;BME280;34408;51.426;5.444;2022-09-02T09:25:28;101395.56;;;20.55;42.67
48614;BME280;34408;51.426;5.444;2022-09-02T09:27:56;101396.41;;;20.55;42.44
48614;BME280;34408;51.426;5.444;2022-09-02T09:30:26;101390.66;;;20.57;42.63
48614;BME280;34408;51.426;5.444;2022-09-02T09:32:55;101386.81;;;20.58;42.52
48614;BME280;34408;51.426;5.444;2022-09-02T09:35:26;101392.84;;;20.60;42.61
48614;BME280;34408;51.426;5.444;2022-09-02T09:37:55;101390.91;;;20.60;42.29
48614;BME280;34408;51.426;5.444;2022-09-02T09:40:28;101380.00;;;20.60;42.58
48614;BME280;34408;51.426;5.444;2022-09-02T09:43:09;101380.25;;;20.64;42.49
48614;BME280;34408;51.426;5.444;2022-09-02T09:45:43;101383.53;;;20.66;43.07
48614;BME280;34408;51.426;5.444;2022-09-02T09:48:18;101379.44;;;20.68;42.92
48614;BME280;34408;51.426;5.444;2022-09-02T09:51:08;101379.97;;;20.70;43.00
48614;BME280;34408;51.426;5.444;2022-09-02T09:53:37;101375.88;;;20.73;42.71
48614;BME280;34408;51.426;5.444;2022-09-02T09:56:06;101376.41;;;20.75;42.64
48614;BME280;34408;51.426;5.444;2022-09-02T09:58:41;101373.41;;;20.76;42.81
48614;BME280;34408;51.426;5.444;2022-09-02T10:01:12;101372.84;;;20.79;42.85
48614;BME280;34408;51.426;5.444;2022-09-02T10:03:46;101359.19;;;20.79;42.85
48614;BME280;34408;51.426;5.444;2022-09-02T10:06:20;101349.59;;;20.82;43.11
48614;BME280;34408;51.426;5.444;2022-09-02T10:08:53;101358.06;;;20.86;42.89
48614;BME280;34408;51.426;5.444;2022-09-02T10:11:24;101355.03;;;20.87;42.89
48614;BME280;34408;51.426;5.444;2022-09-02T10:13:57;101350.94;;;20.90;43.23
48614;BME280;34408;51.426;5.444;2022-09-02T10:16:47;101346.00;;;20.92;43.01
48614;BME280;34408;51.426;5.444;2022-09-02T10:19:24;101347.38;;;20.94;43.06
48614;BME280;34408;51.426;5.444;2022-09-02T10:25:25;101339.69;;;21.01;43.02
48614;BME280;34408;51.426;5.444;2022-09-02T10:27:59;101339.69;;;21.01;43.18
48614;BME280;34408;51.426;5.444;2022-09-02T10:30:37;101341.31;;;21.07;43.23
48614;BME280;34408;51.426;5.444;2022-09-02T10:33:16;101338.84;;;21.11;44.08
48614;BME280;34408;51.426;5.444;2022-09-02T10:35:47;101335.53;;;21.14;43.67
48614;BME280;34408;51.426;5.444;2022-09-02T10:38:32;101334.41;;;21.20;43.43
48614;BME280;34408;51.426;5.444;2022-09-02T10:41:13;101337.44;;;21.24;43.44
48614;BME280;34408;51.426;5.444;2022-09-02T10:43:56;101327.56;;;21.28;42.85
48614;BME280;34408;51.426;5.444;2022-09-02T10:46:33;101326.72;;;21.32;42.63
48614;BME280;34408;51.426;5.444;2022-09-02T10:49:12;101331.34;;;21.37;42.36
48614;BME280;34408;51.426;5.444;2022-09-02T10:51:52;101325.03;;;21.41;42.56
48614;BME280;34408;51.426;5.444;2022-09-02T10:54:31;101327.75;;;21.47;42.90
48614;BME280;34408;51.426;5.444;2022-09-02T10:57:05;101320.59;;;21.51;42.29
48614;BME280;34408;51.426;5.444;2022-09-02T10:59:40;101317.03;;;21.55;41.91
48614;BME280;34408;51.426;5.444;2022-09-02T11:02:13;101307.97;;;21.60;42.63
48614;BME280;34408;51.426;5.444;2022-09-02T11:04:48;101304.38;;;21.64;42.21
48614;BME280;34408;51.426;5.444;2022-09-02T11:07:24;101296.94;;;21.70;41.99
48614;BME280;34408;51.426;5.444;2022-09-02T11:09:55;101284.31;;;21.74;41.88
48614;BME280;34408;51.426;5.444;2022-09-02T11:12:30;101288.13;;;21.78;41.94
48614;BME280;34408;51.426;5.444;2022-09-02T11:15:07;101286.97;;;21.84;42.03
48614;BME280;34408;51.426;5.444;2022-09-02T11:17:40;101286.13;;;21.89;42.00
48614;BME280;34408;51.426;5.444;2022-09-02T11:20:14;101279.78;;;21.93;41.97
48614;BME280;34408;51.426;5.444;2022-09-02T11:22:50;101271.25;;;22.00;42.00
48614;BME280;34408;51.426;5.444;2022-09-02T11:25:21;101276.72;;;22.05;42.15
48614;BME280;34408;51.426;5.444;2022-09-02T11:27:53;101278.28;;;22.11;42.56
48614;BME280;34408;51.426;5.444;2022-09-02T11:30:33;101273.59;;;22.17;41.89
48614;BME280;34408;51.426;5.444;2022-09-02T11:33:12;101263.09;;;22.24;42.49
48614;BME280;34408;51.426;5.444;2022-09-02T11:35:44;101266.59;;;22.29;42.74
48614;BME280;34408;51.426;5.444;2022-09-02T11:38:27;101266.25;;;22.36;42.27
48614;BME280;34408;51.426;5.444;2022-09-02T11:41:12;101261.84;;;22.40;41.77
48614;BME280;34408;51.426;5.444;2022-09-02T11:44:18;101268.06;;;22.46;41.53
48614;BME280;34408;51.426;5.444;2022-09-02T11:47:06;101254.31;;;22.51;41.82
48614;BME280;34408;51.426;5.444;2022-09-02T11:49:54;101254.53;;;22.54;41.38
48614;BME280;34408;51.426;5.444;2022-09-02T11:52:40;101247.34;;;22.58;41.22
48614;BME280;34408;51.426;5.444;2022-09-02T11:55:15;101246.19;;;22.64;41.85
48614;BME280;34408;51.426;5.444;2022-09-02T11:57:50;101246.13;;;22.69;41.02
48614;BME280;34408;51.426;5.444;2022-09-02T12:00:29;101247.16;;;22.73;41.19
48614;BME280;34408;51.426;5.444;2022-09-02T12:03:01;101243.53;;;22.78;41.61
48614;BME280;34408;51.426;5.444;2022-09-02T12:06:07;101233.34;;;22.84;41.42
48614;BME280;34408;51.426;5.444;2022-09-02T12:09:10;101235.22;;;22.88;40.37
48614;BME280;34408;51.426;5.444;2022-09-02T12:11:45;101227.50;;;22.90;40.40
48614;BME280;34408;51.426;5.444;2022-09-02T12:17:43;101236.88;;;23.08;41.95
48614;BME280;34408;51.426;5.444;2022-09-02T12:26:25;101234.50;;;23.20;38.89
48614;BME280;34408;51.426;5.444;2022-09-02T12:29:10;101226.78;;;23.22;38.13
48614;BME280;34408;51.426;5.444;2022-09-02T12:37:05;101207.34;;;23.37;39.26
48614;BME280;34408;51.426;5.444;2022-09-02T12:39:53;101211.63;;;23.44;38.85
48614;BME280;34408;51.426;5.444;2022-09-02T12:42:27;101214.28;;;23.49;39.99
48614;BME280;34408;51.426;5.444;2022-09-02T12:45:02;101205.16;;;23.53;39.69
48614;BME280;34408;51.426;5.444;2022-09-02T12:47:42;101201.56;;;23.58;40.51
48614;BME280;34408;51.426;5.444;2022-09-02T12:50:19;101195.16;;;23.62;38.30
48614;BME280;34408;51.426;5.444;2022-09-02T12:52:49;101204.72;;;23.65;37.41
48614;BME280;34408;51.426;5.444;2022-09-02T12:55:21;101197.22;;;23.71;37.02
48614;BME280;34408;51.426;5.444;2022-09-02T12:57:54;101202.91;;;23.74;38.09
48614;BME280;34408;51.426;5.444;2022-09-02T13:00:29;101195.50;;;23.75;37.29
48614;BME280;34408;51.426;5.444;2022-09-02T13:03:15;101189.41;;;23.78;37.91
48614;BME280;34408;51.426;5.444;2022-09-02T13:05:54;101191.25;;;23.82;37.45
48614;BME280;34408;51.426;5.444;2022-09-02T13:12:12;101183.22;;;23.86;36.45
48614;BME280;34408;51.426;5.444;2022-09-02T13:15:00;101185.38;;;23.89;36.41
48614;BME280;34408;51.426;5.444;2022-09-02T13:18:00;101174.06;;;23.90;36.11
48614;BME280;34408;51.426;5.444;2022-09-02T13:20:57;101189.13;;;23.93;35.31
48614;BME280;34408;51.426;5.444;2022-09-02T13:24:05;101179.16;;;23.97;35.40
48614;BME280;34408;51.426;5.444;2022-09-02T13:29:58;101176.53;;;24.06;36.94
48614;BME280;34408;51.426;5.444;2022-09-02T13:32:29;101181.13;;;24.10;36.64
48614;BME280;34408;51.426;5.444;2022-09-02T13:35:00;101179.69;;;24.13;36.87
48614;BME280;34408;51.426;5.444;2022-09-02T13:37:30;101170.34;;;24.14;35.45
48614;BME280;34408;51.426;5.444;2022-09-02T13:40:00;101167.28;;;24.15;35.90